METAR Data
IDs: Format: Raw Decoded Include TAF

Data at: 0454 UTC 26 May 2022

LOWK 260420Z AUTO VRB01KT 9999 FEW010 BKN055 14/13 Q1023 NOSIG